createdAt,value
2022-08-17T00:08:19.149Z,30.90
2022-08-17T00:13:45.806Z,34.50
2022-08-17T00:19:09.962Z,26.60
2022-08-17T00:24:38.101Z,30.50
2022-08-17T00:30:00.378Z,21.60
2022-08-17T00:35:29.776Z,28.70
2022-08-17T00:40:49.031Z,23.80
2022-08-17T00:46:19.536Z,31.00
2022-08-17T00:51:45.843Z,27.20
2022-08-17T00:57:21.444Z,26.00
2022-08-17T01:02:51.084Z,25.80
2022-08-17T01:08:12.938Z,23.40
2022-08-17T01:13:44.376Z,19.30
2022-08-17T01:19:18.554Z,26.10
2022-08-17T01:24:46.791Z,19.20
2022-08-17T01:30:00.441Z,20.80
2022-08-17T01:35:30.954Z,23.20
2022-08-17T01:41:28.322Z,26.80
2022-08-17T01:46:58.097Z,27.10
2022-08-17T01:52:29.888Z,21.90
2022-08-17T01:57:58.160Z,20.30
2022-08-17T02:03:28.188Z,25.00
2022-08-17T02:09:01.773Z,24.10
2022-08-17T02:14:23.854Z,32.40
2022-08-17T02:19:44.064Z,28.50
2022-08-17T02:24:59.509Z,21.00
2022-08-17T02:30:59.243Z,34.00
2022-08-17T02:36:11.584Z,25.60
2022-08-17T02:41:28.618Z,27.10
2022-08-17T02:46:47.836Z,18.00
2022-08-17T02:52:16.002Z,25.70
2022-08-17T02:58:05.181Z,29.40
2022-08-17T03:03:23.995Z,23.50
2022-08-17T03:08:47.440Z,19.70
2022-08-17T03:14:16.809Z,21.70
2022-08-17T03:25:13.086Z,21.90
2022-08-17T03:30:43.527Z,22.90
2022-08-17T03:36:12.136Z,25.40
2022-08-17T03:41:32.341Z,21.80
2022-08-17T03:47:18.321Z,24.90
2022-08-17T03:53:05.363Z,20.70
2022-08-17T03:58:32.952Z,23.00
2022-08-17T04:03:57.169Z,24.50
2022-08-17T04:09:28.208Z,28.40
2022-08-17T04:14:51.669Z,24.20
2022-08-17T04:20:17.574Z,21.60
2022-08-17T04:25:43.949Z,23.20
2022-08-17T04:31:04.928Z,22.90
2022-08-17T04:36:34.507Z,22.60
2022-08-17T04:42:09.424Z,34.00
2022-08-17T04:47:37.099Z,30.70
2022-08-17T04:52:49.585Z,29.70
2022-08-17T04:58:11.555Z,25.30
2022-08-17T05:03:39.394Z,25.60
2022-08-17T05:09:07.901Z,24.40
2022-08-17T05:14:35.551Z,20.40
2022-08-17T05:20:03.186Z,23.80
2022-08-17T05:25:12.141Z,24.10
2022-08-17T05:30:21.843Z,32.80
2022-08-17T05:35:51.362Z,26.80
2022-08-17T05:41:06.785Z,29.60
2022-08-17T05:46:29.959Z,37.10
2022-08-17T05:52:08.901Z,27.70
2022-08-17T05:58:15.775Z,28.20
2022-08-17T06:03:49.477Z,28.10
2022-08-17T06:09:26.528Z,26.80
2022-08-17T06:14:54.559Z,25.00
2022-08-17T06:20:16.113Z,29.60
2022-08-17T06:25:31.654Z,25.60
2022-08-17T06:30:59.337Z,37.40
2022-08-17T06:36:19.467Z,26.70
2022-08-17T06:41:37.929Z,19.50
2022-08-17T06:46:52.605Z,36.30
2022-08-17T06:52:09.306Z,27.90
2022-08-17T06:57:29.813Z,24.70
2022-08-17T07:02:51.890Z,28.10
2022-08-17T07:08:18.770Z,23.70
2022-08-17T07:13:39.364Z,17.40
2022-08-17T07:18:48.075Z,16.50
2022-08-17T07:24:29.572Z,17.80
2022-08-17T07:29:42.265Z,22.60
2022-08-17T07:35:15.379Z,15.10
2022-08-17T07:40:30.208Z,25.50
2022-08-17T07:46:00.034Z,27.50
2022-08-17T07:51:18.427Z,15.20
2022-08-17T07:56:43.234Z,19.40
2022-08-17T08:02:06.398Z,19.00
2022-08-17T08:07:26.656Z,19.40
2022-08-17T08:12:40.174Z,11.80
2022-08-17T08:17:54.898Z,13.80
2022-08-17T08:23:12.618Z,12.50
2022-08-17T08:28:35.385Z,15.20
2022-08-17T08:33:56.437Z,23.60
2022-08-17T08:39:14.537Z,22.10
2022-08-17T08:45:00.414Z,24.80
2022-08-17T08:50:36.877Z,23.10
2022-08-17T08:55:54.101Z,22.00
2022-08-17T09:01:24.603Z,15.30
2022-08-17T09:06:46.137Z,23.10
2022-08-17T09:12:03.924Z,14.80
2022-08-17T09:17:16.509Z,23.40
2022-08-17T09:22:33.954Z,9.60
2022-08-17T09:27:57.611Z,13.80
2022-08-17T09:38:26.286Z,11.50
2022-08-17T09:43:45.003Z,8.00
2022-08-17T09:48:58.808Z,9.90
2022-08-17T09:54:38.081Z,10.20
2022-08-17T10:00:12.137Z,7.00
2022-08-17T10:05:24.270Z,7.60
2022-08-17T10:10:43.899Z,9.60
2022-08-17T10:16:15.014Z,18.40
2022-08-17T10:22:00.614Z,9.60
2022-08-17T10:27:23.268Z,6.70
2022-08-17T10:32:37.086Z,12.70
2022-08-17T10:37:59.605Z,18.20
2022-08-17T10:43:32.000Z,16.40
2022-08-17T10:48:42.899Z,26.30
2022-08-17T10:54:02.269Z,15.30
2022-08-17T10:59:09.928Z,13.00
2022-08-17T11:04:39.488Z,12.50
2022-08-17T11:10:05.718Z,10.10
2022-08-17T11:15:38.486Z,13.70
2022-08-17T11:21:37.903Z,10.80
2022-08-17T11:26:49.112Z,13.90
2022-08-17T11:32:08.000Z,10.70
2022-08-17T11:37:43.359Z,7.70
2022-08-17T11:43:25.574Z,13.90
2022-08-17T11:49:00.763Z,11.40
2022-08-17T11:54:45.014Z,16.70
2022-08-17T12:00:07.071Z,12.70
2022-08-17T12:05:35.379Z,9.90
2022-08-17T12:11:04.916Z,8.40
2022-08-17T12:16:17.931Z,7.00
2022-08-17T12:21:41.693Z,9.10
2022-08-17T12:26:56.897Z,11.00
2022-08-17T12:32:08.017Z,12.70
2022-08-17T12:37:20.811Z,7.20
2022-08-17T12:42:37.763Z,8.90
2022-08-17T12:48:04.403Z,8.70
2022-08-17T12:53:17.040Z,9.20
2022-08-17T12:58:30.147Z,8.40
2022-08-17T13:03:52.820Z,13.90
2022-08-17T13:09:13.277Z,11.40
2022-08-17T13:14:21.108Z,18.80
2022-08-17T13:19:39.979Z,13.10
2022-08-17T13:25:04.222Z,10.80
2022-08-17T13:30:21.196Z,11.60
2022-08-17T13:35:47.075Z,11.10
2022-08-17T13:40:58.499Z,8.90
2022-08-17T13:46:20.148Z,18.00
2022-08-17T13:51:34.983Z,6.00
2022-08-17T13:57:22.446Z,17.00
2022-08-17T14:02:34.235Z,7.90
2022-08-17T14:07:43.533Z,7.20
2022-08-17T14:12:52.471Z,9.90
2022-08-17T14:18:03.065Z,14.70
2022-08-17T14:23:10.817Z,8.00
2022-08-17T14:28:19.099Z,6.80
2022-08-17T14:33:27.426Z,8.20
2022-08-17T14:38:43.208Z,12.60
2022-08-17T14:43:54.128Z,11.10
2022-08-17T14:49:03.333Z,14.60
2022-08-17T14:54:25.603Z,15.60
2022-08-17T14:59:59.186Z,11.20
2022-08-17T15:05:58.581Z,10.30
2022-08-17T15:16:29.999Z,11.70
2022-08-17T15:21:40.049Z,13.80
2022-08-17T15:27:33.578Z,9.80
2022-08-17T15:33:13.840Z,12.70
2022-08-17T15:38:30.244Z,11.80
2022-08-17T15:43:40.771Z,9.00
2022-08-17T15:49:03.297Z,9.00
2022-08-17T15:54:22.871Z,7.10
2022-08-17T15:59:38.520Z,19.10
2022-08-17T16:04:50.625Z,27.50
2022-08-17T16:10:18.694Z,13.40
2022-08-17T16:15:32.113Z,10.90
2022-08-17T16:20:46.128Z,11.60
2022-08-17T16:26:10.469Z,17.00
2022-08-17T16:31:21.265Z,22.70
2022-08-17T16:36:35.741Z,11.00
2022-08-17T16:42:43.162Z,16.70
2022-08-17T16:47:52.602Z,12.30
2022-08-17T16:53:11.034Z,22.40
2022-08-17T16:58:41.610Z,20.20
2022-08-17T17:04:05.965Z,28.20
2022-08-17T17:09:34.015Z,21.10
2022-08-17T17:15:02.035Z,17.60
2022-08-17T17:20:24.103Z,17.10
2022-08-17T17:25:48.843Z,24.30
2022-08-17T17:31:07.307Z,25.10
2022-08-17T17:36:27.533Z,21.40
2022-08-17T17:41:43.168Z,15.70
2022-08-17T17:47:11.348Z,17.10
2022-08-17T17:52:32.973Z,25.10
2022-08-17T17:57:58.017Z,24.80
2022-08-17T18:03:21.358Z,24.60
2022-08-17T18:08:55.081Z,27.60
2022-08-17T18:14:26.308Z,14.60
2022-08-17T18:19:34.298Z,22.40
2022-08-17T18:24:47.510Z,33.50
2022-08-17T18:29:56.948Z,25.60
2022-08-17T18:35:28.568Z,28.70
2022-08-17T18:40:40.148Z,30.50
2022-08-17T18:45:51.466Z,22.10
2022-08-17T18:51:21.625Z,21.60
2022-08-17T18:56:46.104Z,29.30
2022-08-17T19:02:16.009Z,31.00
2022-08-17T19:07:54.532Z,31.90
2022-08-17T19:13:15.227Z,32.50
2022-08-17T19:18:48.853Z,37.80
2022-08-17T19:24:04.871Z,29.30
2022-08-17T19:29:22.429Z,23.50
2022-08-17T19:34:40.285Z,23.20
2022-08-17T19:40:10.459Z,24.60
2022-08-17T19:45:45.964Z,29.30
2022-08-17T19:51:09.851Z,27.30
2022-08-17T19:56:46.436Z,24.60
2022-08-17T20:02:03.509Z,20.10
2022-08-17T20:07:19.947Z,26.60
2022-08-17T20:12:36.409Z,20.20
2022-08-17T20:17:47.743Z,22.50
2022-08-17T20:23:05.997Z,24.30
2022-08-17T20:28:25.332Z,31.60
2022-08-17T20:33:42.072Z,30.30
2022-08-17T20:39:00.567Z,37.60
2022-08-17T20:44:41.782Z,23.10
2022-08-17T20:50:07.958Z,27.40
2022-08-17T20:55:53.352Z,22.80
2022-08-17T21:01:20.290Z,23.80
2022-08-17T21:06:30.934Z,27.60
2022-08-17T21:12:05.026Z,29.80
2022-08-17T21:17:38.769Z,25.60
2022-08-17T21:23:00.759Z,25.00
2022-08-17T21:28:33.718Z,23.00
2022-08-17T21:34:30.645Z,21.00
2022-08-17T21:39:47.478Z,26.80
2022-08-17T21:45:21.112Z,24.50
2022-08-17T21:50:32.323Z,19.40
2022-08-17T21:55:53.875Z,29.00
2022-08-17T22:01:27.021Z,23.10
2022-08-17T22:06:56.723Z,32.50
2022-08-17T22:12:12.666Z,29.30
2022-08-17T22:17:46.756Z,28.60
2022-08-17T22:23:34.691Z,40.90
2022-08-17T22:28:50.795Z,27.70
2022-08-17T22:34:16.189Z,30.00
2022-08-17T22:39:42.073Z,31.10
2022-08-17T22:44:55.025Z,23.60
2022-08-17T22:50:06.494Z,35.30
2022-08-17T22:55:37.026Z,26.60
2022-08-17T23:00:50.781Z,30.50
2022-08-17T23:06:10.128Z,25.80
2022-08-17T23:11:36.892Z,27.30
2022-08-17T23:17:01.717Z,26.80
2022-08-17T23:22:12.641Z,25.70
2022-08-17T23:27:30.755Z,30.70
2022-08-17T23:32:47.425Z,35.10
2022-08-17T23:38:15.082Z,43.30
2022-08-17T23:43:25.761Z,30.20
2022-08-17T23:48:56.766Z,43.00
2022-08-17T23:54:12.080Z,34.20
2022-08-17T23:59:22.458Z,25.40
